Time;durP1;ratioP1;P1;durP2;ratioP2;P2;SDS_P1;SDS_P2;PMS_P1;PMS_P2;Temp;Humidity;BMP_temperature;BMP_pressure;BME280_temperature;BME280_humidity;BME280_pressure;Samples;Min_cycle;Max_cycle;Signal;HPM_P1;HPM_P2
2022/05/20 00:01:12;;;;;;;;;;;;;;;13.82;50.05;151126.45;1752928;81;20142;-69
2022/05/20 00:03:39;;;;;;;;;;;;;;;13.80;50.00;151121.25;1753416;81;20222;-69
2022/05/20 00:06:06;;;;;;;;;;;;;;;13.77;49.97;151112.13;1753257;81;21188;-68
2022/05/20 00:08:33;;;;;;;;;;;;;;;13.74;49.87;151106.94;1723846;81;20207;-68
2022/05/20 00:11:00;;;;;;;;;;;;;;;13.72;49.49;151101.73;1722862;83;20173;-68
2022/05/20 00:13:27;;;;;;;;;;;;;;;13.72;49.22;151101.73;1723166;82;20267;-68
2022/05/20 00:15:54;;;;;;;;;;;;;;;13.71;49.24;151097.86;1722947;83;20184;-68
2022/05/20 00:18:21;;;;;;;;;;;;;;;13.67;49.29;151088.75;1722958;83;21164;-68
2022/05/20 00:20:49;;;;;;;;;;;;;;;13.63;49.70;151078.34;1722687;83;20496;-70
2022/05/20 00:23:16;;;;;;;;;;;;;;;13.57;49.94;151064.03;1749136;81;20198;-68
2022/05/20 00:25:46;;;;;;;;;;;;;;;13.50;50.23;151044.52;1753099;80;20157;-68
2022/05/20 00:28:20;;;;;;;;;;;;;;;13.45;50.39;151032.80;1753503;81;20170;-69
2022/05/20 00:30:56;;;;;;;;;;;;;;;13.38;50.64;151015.89;1753441;81;20582;-69
2022/05/20 00:33:25;;;;;;;;;;;;;;;13.31;50.74;150998.97;1752345;81;20133;-69
2022/05/20 00:35:51;;;;;;;;;;;;;;;13.23;50.91;150978.14;1752967;81;20241;-69
2022/05/20 00:38:18;;;;;;;;;;;;;;;13.18;50.83;150966.47;1755285;81;20092;-69
2022/05/20 00:40:47;;;;;;;;;;;;;;;13.13;50.77;150953.44;1751089;82;20171;-70
2022/05/20 00:43:17;;;;;;;;;;;;;;;13.08;50.83;150939.17;1751684;82;21246;-70
2022/05/20 00:45:44;;;;;;;;;;;;;;;13.03;50.93;150927.45;1750641;81;20669;-69
2022/05/20 00:48:11;;;;;;;;;;;;;;;12.99;51.06;150918.34;1751692;82;20143;-69
2022/05/20 00:50:42;;;;;;;;;;;;;;;12.94;51.35;150904.08;1751477;82;20179;-69
2022/05/20 00:53:09;;;;;;;;;;;;;;;12.87;51.48;150888.44;1751783;82;20139;-70
2022/05/20 00:55:37;;;;;;;;;;;;;;;12.83;51.59;150876.78;1750803;81;21883;-69
2022/05/20 00:58:09;;;;;;;;;;;;;;;12.78;51.70;150865.06;1751016;81;20198;-70
2022/05/20 01:00:38;;;;;;;;;;;;;;;12.74;51.83;150854.67;1751579;81;20202;-70
2022/05/20 01:03:06;;;;;;;;;;;;;;;12.69;51.92;150842.97;1751458;81;20117;-70
2022/05/20 01:05:39;;;;;;;;;;;;;;;12.68;51.84;150839.05;1750851;81;20182;-70
2022/05/20 01:08:06;;;;;;;;;;;;;;;12.64;52.06;150828.66;1729287;81;21163;-70
2022/05/20 01:10:33;;;;;;;;;;;;;;;12.63;52.04;150826.06;1721960;83;20218;-70
2022/05/20 01:13:00;;;;;;;;;;;;;;;12.60;51.98;150819.59;1726910;81;20214;-70
2022/05/20 01:15:27;;;;;;;;;;;;;;;12.60;52.13;150820.88;1743239;82;20231;-71
2022/05/20 01:17:55;;;;;;;;;;;;;;;12.61;52.20;150823.47;1715099;82;20800;-69
2022/05/20 01:20:27;;;;;;;;;;;;;;;12.61;52.25;150823.47;1744508;82;21202;-70
2022/05/20 01:22:58;;;;;;;;;;;;;;;12.61;52.30;150823.47;1744694;82;20190;-69
2022/05/20 01:25:25;;;;;;;;;;;;;;;12.60;52.16;150820.88;1744595;82;20459;-69
2022/05/20 01:27:53;;;;;;;;;;;;;;;12.55;52.12;150807.89;1744191;81;20455;-70
2022/05/20 01:30:22;;;;;;;;;;;;;;;12.49;52.27;150790.98;1743291;82;20424;-70
2022/05/20 01:32:48;;;;;;;;;;;;;;;12.42;52.22;150774.08;1743203;82;21184;-69
2022/05/20 01:35:31;;;;;;;;;;;;;;;12.33;52.33;150751.98;1743126;82;20178;-70
2022/05/20 01:37:58;;;;;;;;;;;;;;;12.28;52.48;150739.00;1742081;82;20187;-69
2022/05/20 01:40:27;;;;;;;;;;;;;;;12.21;52.72;150720.83;1731914;82;20736;-70
2022/05/20 01:43:02;;;;;;;;;;;;;;;12.19;52.67;150716.91;1744763;81;20284;-67
2022/05/20 01:45:52;;;;;;;;;;;;;;;12.17;52.73;150711.72;1744151;82;21179;-68
2022/05/20 01:48:34;;;;;;;;;;;;;;;12.16;52.59;150709.13;1742679;82;20170;-69
2022/05/20 01:51:02;;;;;;;;;;;;;;;12.15;52.56;150706.53;1743145;82;20247;-69
2022/05/20 01:53:41;;;;;;;;;;;;;;;12.13;52.57;150701.34;1742755;82;20456;-69
2022/05/20 01:56:14;;;;;;;;;;;;;;;12.09;52.51;150690.95;1742212;82;20202;-69
2022/05/20 01:58:47;;;;;;;;;;;;;;;11.99;52.63;150667.50;1743105;82;21222;-69
2022/05/20 02:01:19;;;;;;;;;;;;;;;11.93;52.69;150651.92;1743019;82;20468;-68
2022/05/20 02:03:57;;;;;;;;;;;;;;;11.87;52.78;150636.34;1739716;82;20473;-69
2022/05/20 02:06:30;;;;;;;;;;;;;;;11.81;52.79;150620.72;1725924;82;20168;-69
2022/05/20 02:09:01;;;;;;;;;;;;;;;11.73;52.89;150602.56;1714513;83;20557;-69
2022/05/20 02:11:47;;;;;;;;;;;;;;;11.69;52.87;150592.17;1714259;83;21261;-71
2022/05/20 02:14:24;;;;;;;;;;;;;;;11.69;52.85;150592.17;1727382;82;20152;-70
2022/05/20 02:17:03;;;;;;;;;;;;;;;11.69;52.83;150592.17;1729647;82;20180;-71
2022/05/20 02:19:43;;;;;;;;;;;;;;;11.69;52.71;150592.17;1704745;82;20539;-70
2022/05/20 02:22:12;;;;;;;;;;;;;;;11.68;52.69;150589.58;1755092;81;20430;-70
2022/05/20 02:24:39;;;;;;;;;;;;;;;11.67;52.60;150586.98;1760760;80;22032;-72
2022/05/20 02:27:07;;;;;;;;;;;;;;;11.69;52.68;150592.17;1760938;81;20197;-70
2022/05/20 02:29:51;;;;;;;;;;;;;;;11.71;52.69;150597.38;1761338;81;20117;-71
2022/05/20 02:32:24;;;;;;;;;;;;;;;11.77;52.69;150611.66;1760951;81;20217;-70
2022/05/20 02:34:52;;;;;;;;;;;;;;;11.83;52.47;150625.97;1760570;80;20233;-72
2022/05/20 02:37:27;;;;;;;;;;;;;;;11.87;51.99;150636.34;1761387;81;21261;-70
2022/05/20 02:39:54;;;;;;;;;;;;;;;11.88;51.64;150640.22;1775140;80;20189;-71
2022/05/20 02:42:21;;;;;;;;;;;;;;;11.91;51.39;150646.73;1782836;80;20140;-69
2022/05/20 02:44:48;;;;;;;;;;;;;;;11.92;51.20;150649.33;1782741;80;20235;-70
2022/05/20 02:47:15;;;;;;;;;;;;;;;11.96;51.04;150659.70;1782836;80;20457;-70
2022/05/20 02:49:44;;;;;;;;;;;;;;;12.03;50.81;150677.92;1782454;80;20783;-70
2022/05/20 02:52:10;;;;;;;;;;;;;;;12.12;50.65;150700.02;1782631;80;20161;-69
2022/05/20 02:54:37;;;;;;;;;;;;;;;12.18;50.54;150714.31;1778903;80;20197;-70
2022/05/20 02:57:05;;;;;;;;;;;;;;;12.20;50.41;150719.50;1760909;81;20676;-69
2022/05/20 03:05:04;;;;;;;;;;;;;;;12.36;49.75;150759.78;1760945;81;20197;-69
2022/05/20 03:07:31;;;;;;;;;;;;;;;12.37;49.53;150761.09;1744706;81;20199;-69
2022/05/20 03:10:00;;;;;;;;;;;;;;;12.38;49.48;150763.69;1730727;82;21242;-68
2022/05/20 03:12:27;;;;;;;;;;;;;;;12.37;49.82;150761.09;1746130;81;20230;-70
2022/05/20 03:14:54;;;;;;;;;;;;;;;12.30;49.81;150745.52;1744429;81;21573;-68
2022/05/20 03:17:21;;;;;;;;;;;;;;;12.26;49.77;150735.09;1744331;82;21009;-70
2022/05/20 03:19:48;;;;;;;;;;;;;;;12.24;49.70;150729.89;1743731;81;20217;-70
2022/05/20 03:22:15;;;;;;;;;;;;;;;12.25;49.49;150732.50;1744062;82;20233;-69
2022/05/20 03:24:42;;;;;;;;;;;;;;;12.27;49.40;150737.73;1743692;82;20249;-69
2022/05/20 03:27:09;;;;;;;;;;;;;;;12.34;49.04;150753.31;1744217;82;21181;-70
2022/05/20 03:29:36;;;;;;;;;;;;;;;12.46;49.06;150784.47;1733838;82;20174;-68
2022/05/20 03:32:03;;;;;;;;;;;;;;;12.59;48.65;150818.28;1726293;83;20847;-70
2022/05/20 03:34:31;;;;;;;;;;;;;;;12.70;48.29;150844.25;1726298;83;20184;-70
2022/05/20 03:36:58;;;;;;;;;;;;;;;12.83;48.07;150876.78;1726688;81;20267;-70
2022/05/20 03:39:25;;;;;;;;;;;;;;;12.95;47.56;150906.67;1737951;82;21238;-72
2022/05/20 03:41:52;;;;;;;;;;;;;;;13.08;47.30;150940.44;1743825;80;20230;-69
2022/05/20 03:44:20;;;;;;;;;;;;;;;13.23;46.86;150978.14;1744412;81;20198;-70
2022/05/20 03:46:48;;;;;;;;;;;;;;;13.37;46.48;151013.23;1733045;82;20214;-70
2022/05/20 03:49:16;;;;;;;;;;;;;;;13.52;46.45;151049.72;1726905;83;20516;-69
2022/05/20 03:51:45;;;;;;;;;;;;;;;13.68;46.57;151090.02;1725915;83;21230;-71
2022/05/20 03:54:11;;;;;;;;;;;;;;;13.82;46.66;151125.17;1726105;83;20192;-70
2022/05/20 03:56:40;;;;;;;;;;;;;;;13.95;46.57;151158.97;1725700;81;20192;-71
2022/05/20 03:59:12;;;;;;;;;;;;;;;14.06;46.41;151186.28;1726746;83;20240;-70
2022/05/20 04:04:27;;;;;;;;;;;;;;;14.31;46.34;151250.05;1727701;82;21755;-71
2022/05/20 04:06:54;;;;;;;;;;;;;;;14.43;46.25;151278.66;1731705;82;20696;-70
2022/05/20 04:09:21;;;;;;;;;;;;;;;14.57;46.22;151313.78;1744085;82;20147;-69
2022/05/20 04:11:52;;;;;;;;;;;;;;;14.70;45.77;151346.31;1743883;82;20261;-70
2022/05/20 04:14:18;;;;;;;;;;;;;;;14.81;45.28;151375.02;1754426;80;20094;-71
2022/05/20 04:16:47;;;;;;;;;;;;;;;14.96;45.34;151411.48;1760790;81;20640;-69
2022/05/20 04:19:14;;;;;;;;;;;;;;;15.13;44.98;151455.70;1761241;81;20201;-70
2022/05/20 04:21:42;;;;;;;;;;;;;;;15.26;44.80;151486.97;1760826;81;20250;-70
2022/05/20 04:24:09;;;;;;;;;;;;;;;15.40;44.66;151523.44;1760840;81;20221;-67
2022/05/20 04:26:36;;;;;;;;;;;;;;;15.60;44.45;151572.94;1760904;81;20177;-70
2022/05/20 04:29:03;;;;;;;;;;;;;;;15.81;44.01;151625.03;1761234;81;21954;-68
2022/05/20 04:31:30;;;;;;;;;;;;;;;15.93;43.98;151656.31;1760910;81;20090;-69
2022/05/20 04:33:56;;;;;;;;;;;;;;;16.06;43.74;151688.88;1760494;81;20475;-69
2022/05/20 04:36:23;;;;;;;;;;;;;;;16.19;43.65;151721.44;1760822;81;20145;-69
2022/05/20 04:38:52;;;;;;;;;;;;;;;16.38;43.47;151768.34;1760824;81;20212;-70
2022/05/20 04:46:57;;;;;;;;;;;;;;;16.85;43.01;151888.23;1760151;80;20300;-68
2022/05/20 04:49:24;;;;;;;;;;;;;;;17.04;42.92;151936.53;1760782;81;20498;-69
2022/05/20 04:51:52;;;;;;;;;;;;;;;17.18;42.58;151971.73;1760593;81;20220;-69
2022/05/20 04:57:04;;;;;;;;;;;;;;;17.45;42.38;152039.52;1760329;81;20198;-69
2022/05/20 04:59:38;;;;;;;;;;;;;;;17.61;42.10;152078.66;1760129;80;20248;-70
2022/05/20 05:02:05;;;;;;;;;;;;;;;17.74;42.05;152112.53;1760567;81;20532;-69
2022/05/20 05:04:34;;;;;;;;;;;;;;;17.90;41.78;152151.67;1760632;81;20201;-69
2022/05/20 05:07:01;;;;;;;;;;;;;;;18.05;41.48;152189.53;1750993;81;21125;-68
2022/05/20 05:09:28;;;;;;;;;;;;;;;18.14;41.22;152211.72;1730233;82;20552;-69
2022/05/20 05:11:55;;;;;;;;;;;;;;;18.27;41.20;152245.66;1751126;81;20145;-68
2022/05/20 05:14:22;;;;;;;;;;;;;;;18.42;40.98;152282.16;1760003;81;20559;-69
2022/05/20 05:16:49;;;;;;;;;;;;;;;18.59;40.42;152326.52;1758309;81;20209;-70
2022/05/20 05:19:17;;;;;;;;;;;;;;;18.74;39.77;152363.08;1758614;81;21309;-69
2022/05/20 05:21:44;;;;;;;;;;;;;;;18.86;39.31;152394.38;1758008;81;20648;-70
2022/05/20 05:24:11;;;;;;;;;;;;;;;18.98;39.18;152424.44;1760701;81;20161;-70
2022/05/20 05:26:42;;;;;;;;;;;;;;;19.13;39.09;152461.00;1758449;81;20409;-72
2022/05/20 05:29:09;;;;;;;;;;;;;;;19.32;39.02;152509.28;1751386;81;20194;-70
2022/05/20 05:31:36;;;;;;;;;;;;;;;19.50;38.58;152555.00;1759238;81;21226;-70
2022/05/20 05:34:03;;;;;;;;;;;;;;;19.69;37.35;152603.30;1758544;81;20412;-69
2022/05/20 05:36:30;;;;;;;;;;;;;;;19.86;36.95;152645.09;1758425;81;20164;-69
2022/05/20 05:38:57;;;;;;;;;;;;;;;19.97;35.92;152673.86;1745287;81;20205;-69
2022/05/20 05:41:30;;;;;;;;;;;;;;;20.14;35.56;152715.66;1729424;81;20150;-71
2022/05/20 05:44:03;;;;;;;;;;;;;;;20.28;34.88;152752.25;1728448;83;21508;-69
2022/05/20 05:46:27;;;;;;;;;;;;;;;20.43;34.70;152788.80;1728600;81;20250;-70
2022/05/20 05:48:53;;;;;;;;;;;;;;;20.52;34.74;152812.34;1728506;83;20139;-70
2022/05/20 05:51:20;;;;;;;;;;;;;;;20.69;35.03;152854.16;1728506;83;20839;-70
2022/05/20 05:53:49;;;;;;;;;;;;;;;20.91;34.39;152909.09;1728206;83;20180;-69
2022/05/20 05:56:16;;;;;;;;;;;;;;;21.08;33.84;152953.48;1728476;83;21594;-68
2022/05/20 05:58:44;;;;;;;;;;;;;;;21.23;33.32;152990.09;1728311;83;20180;-69
2022/05/20 06:01:12;;;;;;;;;;;;;;;21.41;32.76;153037.16;1728647;83;20223;-69
2022/05/20 06:03:39;;;;;;;;;;;;;;;21.57;31.81;153077.67;1728890;81;20600;-68
2022/05/20 06:06:05;;;;;;;;;;;;;;;21.66;31.32;153099.95;1728131;83;20252;-70
2022/05/20 06:08:32;;;;;;;;;;;;;;;21.73;31.42;153118.25;1729555;83;21813;-66
2022/05/20 06:11:01;;;;;;;;;;;;;;;21.81;31.61;153136.58;1729972;82;20503;-68
2022/05/20 06:13:29;;;;;;;;;;;;;;;21.95;31.49;153173.16;1729976;82;21014;-68
2022/05/20 06:15:57;;;;;;;;;;;;;;;22.01;30.74;153188.89;1751723;81;20121;-67
2022/05/20 06:18:24;;;;;;;;;;;;;;;22.07;30.34;153201.95;1752749;81;20151;-68
2022/05/20 06:20:51;;;;;;;;;;;;;;;22.12;30.29;153215.02;1753326;80;20590;-68
2022/05/20 06:23:18;;;;;;;;;;;;;;;22.27;30.07;153254.27;1753374;81;20545;-69
2022/05/20 06:25:45;;;;;;;;;;;;;;;22.45;29.68;153300.03;1753516;81;20198;-69
2022/05/20 06:28:16;;;;;;;;;;;;;;;22.54;29.33;153322.31;1753454;80;20170;-68
2022/05/20 06:30:43;;;;;;;;;;;;;;;22.65;28.86;153348.47;1753665;80;20137;-70
2022/05/20 06:33:10;;;;;;;;;;;;;;;22.64;28.68;153345.84;1753171;80;21189;-69
2022/05/20 06:41:08;;;;;;;;;;;;;;;23.15;27.85;153476.72;1737732;80;20188;-69
2022/05/20 06:43:36;;;;;;;;;;;;;;;23.32;27.39;153518.61;1752636;81;20198;-70
2022/05/20 06:46:03;;;;;;;;;;;;;;;23.38;26.98;153534.34;1750712;80;21173;-69
2022/05/20 06:48:42;;;;;;;;;;;;;;;23.41;26.64;153540.86;1739684;81;20424;-69
2022/05/20 06:51:11;;;;;;;;;;;;;;;23.45;26.75;153552.66;1753033;81;20629;-69
2022/05/20 06:53:39;;;;;;;;;;;;;;;23.62;26.73;153594.55;1751442;81;20486;-69
2022/05/20 06:56:06;;;;;;;;;;;;;;;23.80;26.39;153639.06;1749298;80;20217;-69
2022/05/20 06:58:33;;;;;;;;;;;;;;;23.91;26.17;153667.84;1749155;80;21287;-69
2022/05/20 07:01:00;;;;;;;;;;;;;;;23.97;25.88;153683.53;1751648;80;20288;-69
2022/05/20 07:03:28;;;;;;;;;;;;;;;23.93;25.87;153673.08;1754100;80;20201;-68
2022/05/20 07:05:56;;;;;;;;;;;;;;;23.88;25.68;153659.98;1733458;80;21232;-69
2022/05/20 07:08:24;;;;;;;;;;;;;;;23.90;25.83;153665.22;1752024;81;20135;-69
2022/05/20 07:10:51;;;;;;;;;;;;;;;23.95;25.29;153678.31;1746443;80;21231;-69
2022/05/20 07:13:18;;;;;;;;;;;;;;;23.97;25.35;153682.25;1722648;83;20211;-69
2022/05/20 07:15:45;;;;;;;;;;;;;;;24.00;25.50;153691.44;1744948;80;20208;-67
2022/05/20 07:18:12;;;;;;;;;;;;;;;24.15;25.49;153728.11;1756952;79;20167;-67
2022/05/20 07:20:39;;;;;;;;;;;;;;;24.32;25.43;153772.64;1759235;80;20189;-66
2022/05/20 07:23:06;;;;;;;;;;;;;;;24.58;25.21;153838.11;1745941;81;20623;-66
2022/05/20 07:25:33;;;;;;;;;;;;;;;24.72;24.66;153872.19;1744245;81;20205;-66
2022/05/20 07:28:00;;;;;;;;;;;;;;;24.56;24.89;153832.87;1758930;80;20146;-66
2022/05/20 07:30:30;;;;;;;;;;;;;;;24.58;25.04;153838.11;1760493;81;20179;-67
2022/05/20 07:32:57;;;;;;;;;;;;;;;24.66;24.92;153857.77;1760491;79;20181;-68
2022/05/20 07:35:24;;;;;;;;;;;;;;;24.81;24.58;153895.78;1759002;81;21248;-69
2022/05/20 07:37:51;;;;;;;;;;;;;;;24.96;24.48;153932.48;1760893;81;20232;-68
2022/05/20 07:40:18;;;;;;;;;;;;;;;25.11;24.61;153971.80;1765414;79;20197;-67
2022/05/20 07:42:46;;;;;;;;;;;;;;;25.24;24.42;154003.22;1761057;81;20205;-69
2022/05/20 07:45:14;;;;;;;;;;;;;;;25.33;24.19;154026.83;1760695;79;20609;-68
2022/05/20 07:47:42;;;;;;;;;;;;;;;25.40;23.75;154045.16;1749169;79;21736;-68
2022/05/20 07:50:10;;;;;;;;;;;;;;;25.36;23.82;154033.34;1760041;79;20319;-68
2022/05/20 07:55:29;;;;;;;;;;;;;;;25.53;23.66;154076.63;1774643;80;20244;-67
2022/05/20 07:57:57;;;;;;;;;;;;;;;25.57;23.60;154087.14;1791034;80;20468;-68
2022/05/20 08:00:24;;;;;;;;;;;;;;;25.61;23.73;154097.63;1788850;80;21143;-68
2022/05/20 08:02:51;;;;;;;;;;;;;;;25.72;23.66;154125.14;1760400;81;20201;-68
2022/05/20 08:05:20;;;;;;;;;;;;;;;25.81;23.78;154147.42;1752316;79;20149;-69
2022/05/20 08:07:48;;;;;;;;;;;;;;;25.90;23.42;154171.00;1767060;80;20201;-68
2022/05/20 08:10:18;;;;;;;;;;;;;;;25.66;22.97;154110.70;1762801;80;20217;-69
2022/05/20 08:12:44;;;;;;;;;;;;;;;25.31;23.54;154021.53;1752272;80;21046;-69
2022/05/20 08:15:13;;;;;;;;;;;;;;;25.25;24.02;154005.83;1765887;79;20198;-69
2022/05/20 08:17:41;;;;;;;;;;;;;;;25.26;24.03;154008.45;1754584;80;21046;-68
2022/05/20 08:20:11;;;;;;;;;;;;;;;25.28;24.02;154013.69;1749244;80;20207;-69
2022/05/20 08:22:39;;;;;;;;;;;;;;;25.29;23.65;154016.30;1742976;81;20179;-69
2022/05/20 08:25:07;;;;;;;;;;;;;;;25.24;23.79;154004.55;1751474;81;21287;-68
2022/05/20 08:27:34;;;;;;;;;;;;;;;25.26;23.85;154008.45;1757782;80;20655;-70
2022/05/20 08:30:13;;;;;;;;;;;;;;;25.27;24.07;154011.06;1764783;80;20444;-68
2022/05/20 08:32:39;;;;;;;;;;;;;;;25.38;24.03;154039.91;1767510;80;20169;-69
2022/05/20 08:35:09;;;;;;;;;;;;;;;25.54;23.87;154079.28;1757670;81;35404;-68
2022/05/20 08:37:40;;;;;;;;;;;;;;;25.65;23.50;154108.09;1756756;81;21309;-69
2022/05/20 08:40:10;;;;;;;;;;;;;;;25.69;23.65;154118.56;1752906;81;21153;-68
2022/05/20 08:42:37;;;;;;;;;;;;;;;25.66;23.25;154110.70;1758877;81;20186;-69
2022/05/20 08:45:05;;;;;;;;;;;;;;;25.39;23.05;154042.53;1757249;80;20489;-69
2022/05/20 08:47:44;;;;;;;;;;;;;;;25.17;23.53;153986.17;1758019;80;20161;-70
2022/05/20 08:50:22;;;;;;;;;;;;;;;25.09;23.75;153966.56;1758719;81;21426;-69
2022/05/20 08:52:50;;;;;;;;;;;;;;;25.19;24.09;153991.41;1728852;81;20447;-69
2022/05/20 08:55:17;;;;;;;;;;;;;;;25.36;24.00;154034.67;1758764;81;20321;-70
2022/05/20 08:57:47;;;;;;;;;;;;;;;25.55;23.84;154081.91;1758254;81;20249;-71
2022/05/20 09:00:15;;;;;;;;;;;;;;;25.72;23.36;154126.42;1758852;81;20221;-71
2022/05/20 09:02:42;;;;;;;;;;;;;;;25.84;22.94;154155.28;1758940;81;21165;-69
2022/05/20 09:05:22;;;;;;;;;;;;;;;25.84;22.81;154156.56;1757490;80;20250;-71
2022/05/20 09:08:05;;;;;;;;;;;;;;;25.88;22.97;154165.75;1755543;80;20459;-70
2022/05/20 09:10:39;;;;;;;;;;;;;;;25.94;23.01;154180.19;1758159;80;20098;-69
2022/05/20 09:13:10;;;;;;;;;;;;;;;26.03;23.01;154205.09;1759630;81;20396;-69
2022/05/20 09:15:43;;;;;;;;;;;;;;;26.08;22.63;154215.56;1751971;81;21102;-69
2022/05/20 09:18:40;;;;;;;;;;;;;;;25.84;22.83;154155.28;1742286;81;20709;-69
2022/05/20 09:21:08;;;;;;;;;;;;;;;25.70;22.84;154121.19;1744322;81;20679;-68
2022/05/20 09:23:56;;;;;;;;;;;;;;;25.62;23.30;154098.91;1736238;80;20456;-67
2022/05/20 09:26:25;;;;;;;;;;;;;;;25.66;23.26;154110.70;1738996;80;20134;-68
2022/05/20 09:28:56;;;;;;;;;;;;;;;25.76;22.77;154134.33;1743007;82;21204;-70
2022/05/20 09:31:32;;;;;;;;;;;;;;;25.69;22.55;154118.56;1741975;82;20202;-70
2022/05/20 09:34:41;;;;;;;;;;;;;;;25.55;22.59;154081.91;1742711;82;20174;-69
2022/05/20 09:37:02;;;;;;;;;;;;;;;25.56;22.60;154085.81;1737276;81;21660;-68
2022/05/20 09:39:35;;;;;;;;;;;;;;;25.60;22.90;154095.00;1740590;80;20178;-71
2022/05/20 09:42:07;;;;;;;;;;;;;;;25.73;22.54;154129.05;1741635;80;21178;-68
2022/05/20 09:44:39;;;;;;;;;;;;;;;25.76;22.56;154135.61;1711342;82;20314;-69
2022/05/20 09:47:20;;;;;;;;;;;;;;;25.85;22.39;154157.91;1738170;81;20170;-68
2022/05/20 09:49:52;;;;;;;;;;;;;;;25.85;22.39;154157.91;1732697;80;20180;-68
2022/05/20 09:52:27;;;;;;;;;;;;;;;25.89;22.52;154169.70;1716665;80;20221;-68
2022/05/20 09:55:03;;;;;;;;;;;;;;;25.97;22.53;154189.33;1746006;80;21121;-68
2022/05/20 09:57:36;;;;;;;;;;;;;;;25.93;22.26;154177.56;1736189;82;20128;-67
2022/05/20 10:00:10;;;;;;;;;;;;;;;25.80;22.25;154146.09;1719406;81;20122;-69
2022/05/20 10:03:06;;;;;;;;;;;;;;;25.74;22.32;154130.38;1736596;81;20174;-68
2022/05/20 10:05:55;;;;;;;;;;;;;;;25.75;22.50;154133.00;1739415;82;20135;-67
2022/05/20 10:08:40;;;;;;;;;;;;;;;25.91;22.51;154173.61;1737929;81;21225;-69
2022/05/20 10:11:14;;;;;;;;;;;;;;;26.09;22.38;154218.19;1715976;81;20178;-68
2022/05/20 10:13:59;;;;;;;;;;;;;;;26.19;22.38;154243.14;1750397;81;20127;-68
2022/05/20 10:16:55;;;;;;;;;;;;;;;26.29;22.42;154270.67;1775118;79;20178;-68
2022/05/20 10:19:48;;;;;;;;;;;;;;;26.40;22.31;154298.20;1754041;81;20170;-68
2022/05/20 10:22:23;;;;;;;;;;;;;;;26.49;21.98;154320.50;1767033;79;21220;-69
2022/05/20 10:24:57;;;;;;;;;;;;;;;26.31;22.03;154274.63;1770094;79;20662;-68
2022/05/20 10:27:33;;;;;;;;;;;;;;;26.13;22.02;154228.66;1783286;80;20472;-70
2022/05/20 10:33:01;;;;;;;;;;;;;;;25.99;22.50;154194.61;1784245;80;20464;-70
2022/05/20 10:35:30;;;;;;;;;;;;;;;26.09;23.18;154219.52;1774488;80;21240;-68
2022/05/20 10:38:25;;;;;;;;;;;;;;;26.22;23.48;154251.00;1738257;80;20832;-70
2022/05/20 10:41:02;;;;;;;;;;;;;;;26.36;23.47;154287.72;1765854;80;20231;-69
2022/05/20 10:49:33;;;;;;;;;;;;;;;26.54;23.31;154332.31;1752857;81;21219;-68
2022/05/20 10:52:22;;;;;;;;;;;;;;;26.60;23.44;154349.31;1770167;79;20215;-70
2022/05/20 10:54:59;;;;;;;;;;;;;;;26.65;23.34;154359.84;1784359;80;20194;-72
2022/05/20 10:57:36;;;;;;;;;;;;;;;26.68;23.35;154367.70;1776376;79;20373;-71
2022/05/20 11:00:06;;;;;;;;;;;;;;;26.71;23.16;154375.56;1758887;79;20207;-70
2022/05/20 11:03:01;;;;;;;;;;;;;;;26.65;23.46;154361.13;1752113;81;21795;-70
2022/05/20 11:05:49;;;;;;;;;;;;;;;26.62;23.22;154351.94;1768163;79;20246;-71
2022/05/20 11:08:32;;;;;;;;;;;;;;;26.46;23.35;154312.64;1764797;79;20200;-70
2022/05/20 11:11:03;;;;;;;;;;;;;;;26.34;23.79;154281.16;1776115;79;20551;-68
2022/05/20 11:13:39;;;;;;;;;;;;;;;26.38;23.80;154291.63;1781443;79;20145;-70
2022/05/20 11:16:29;;;;;;;;;;;;;;;26.44;23.80;154307.41;1769001;79;21894;-71
2022/05/20 11:19:06;;;;;;;;;;;;;;;26.50;23.70;154323.12;1757353;79;20166;-69
2022/05/20 11:21:57;;;;;;;;;;;;;;;26.58;23.44;154342.78;1728436;80;20210;-70
2022/05/20 11:24:50;;;;;;;;;;;;;;;26.60;23.44;154349.31;1775415;80;20100;-69
2022/05/20 11:27:48;;;;;;;;;;;;;;;26.63;23.42;154354.56;1768542;80;20204;-70
2022/05/20 11:30:40;;;;;;;;;;;;;;;26.62;23.35;154353.27;1767976;79;22644;-71
2022/05/20 11:33:25;;;;;;;;;;;;;;;26.60;23.39;154348.03;1742150;80;20206;-70
2022/05/20 11:35:59;;;;;;;;;;;;;;;26.68;22.98;154367.70;1788383;78;20218;-69
2022/05/20 11:38:36;;;;;;;;;;;;;;;26.68;22.76;154367.70;1764985;80;20496;-70
2022/05/20 11:41:19;;;;;;;;;;;;;;;26.59;22.70;154346.70;1762171;79;20196;-69
2022/05/20 11:43:52;;;;;;;;;;;;;;;26.57;22.81;154341.45;1743281;82;21252;-67
2022/05/20 11:46:41;;;;;;;;;;;;;;;26.51;22.84;154324.41;1743319;81;20212;-67
2022/05/20 11:49:34;;;;;;;;;;;;;;;26.50;22.98;154321.78;1770351;80;20489;-68
2022/05/20 11:52:30;;;;;;;;;;;;;;;26.54;22.92;154333.59;1774208;80;20180;-67
2022/05/20 11:55:16;;;;;;;;;;;;;;;26.56;23.00;154338.84;1773929;80;20188;-69
2022/05/20 11:57:46;;;;;;;;;;;;;;;26.57;22.99;154340.17;1774349;80;21264;-67
2022/05/20 12:00:16;;;;;;;;;;;;;;;26.57;22.76;154341.45;1773310;80;20444;-68
2022/05/20 12:02:57;;;;;;;;;;;;;;;26.57;22.74;154341.45;1772158;80;20428;-69
2022/05/20 12:05:30;;;;;;;;;;;;;;;26.62;22.71;154351.94;1750374;80;20512;-66
2022/05/20 12:07:58;;;;;;;;;;;;;;;26.66;22.55;154362.47;1756993;80;20485;-66
2022/05/20 12:10:43;;;;;;;;;;;;;;;26.66;22.88;154362.47;1752461;80;21084;-67
2022/05/20 12:13:19;;;;;;;;;;;;;;;26.70;23.38;154374.23;1756814;80;21027;-67
2022/05/20 12:16:02;;;;;;;;;;;;;;;26.73;24.42;154382.09;1749767;80;20229;-67
2022/05/20 12:24:35;;;;;;;;;;;;;;;26.42;25.65;154302.16;1756876;79;21350;-67
2022/05/20 12:27:09;;;;;;;;;;;;;;;26.28;25.74;154266.72;1766495;80;20197;-69
2022/05/20 12:29:43;;;;;;;;;;;;;;;26.04;25.92;154206.38;1756851;79;20469;-67
2022/05/20 12:32:18;;;;;;;;;;;;;;;25.85;26.29;154159.19;1750590;79;21017;-68
2022/05/20 12:35:05;;;;;;;;;;;;;;;25.74;26.30;154131.66;1748211;80;20363;-70
2022/05/20 12:37:48;;;;;;;;;;;;;;;25.63;26.53;154101.52;1752807;79;21233;-71
2022/05/20 12:40:18;;;;;;;;;;;;;;;25.53;26.89;154076.63;1754999;79;20485;-69
2022/05/20 12:42:49;;;;;;;;;;;;;;;25.46;26.96;154060.86;1760177;79;20482;-72
2022/05/20 12:45:17;;;;;;;;;;;;;;;25.37;27.00;154035.97;1747769;81;20211;-70
2022/05/20 12:47:44;;;;;;;;;;;;;;;25.29;27.12;154017.64;1723399;83;20183;-70
2022/05/20 12:50:23;;;;;;;;;;;;;;;25.23;27.27;154000.59;1737500;81;21214;-71
2022/05/20 12:52:51;;;;;;;;;;;;;;;25.13;27.54;153977.03;1749136;81;20160;-69
2022/05/20 12:55:24;;;;;;;;;;;;;;;25.05;27.65;153956.03;1777847;80;20172;-71
2022/05/20 12:58:02;;;;;;;;;;;;;;;24.95;27.83;153929.86;1777119;77;20193;-70
2022/05/20 13:00:33;;;;;;;;;;;;;;;24.87;27.95;153911.53;1737467;80;20376;-69
2022/05/20 13:03:21;;;;;;;;;;;;;;;24.78;27.89;153887.94;1796277;78;22050;-70
2022/05/20 13:05:53;;;;;;;;;;;;;;;24.71;27.92;153869.56;1781601;79;20672;-69
2022/05/20 13:08:27;;;;;;;;;;;;;;;24.61;27.93;153845.95;1788234;80;20459;-70
2022/05/20 13:10:54;;;;;;;;;;;;;;;24.50;28.21;153817.17;1773719;80;20176;-67
2022/05/20 13:13:23;;;;;;;;;;;;;;;24.44;28.59;153801.47;1744962;80;20214;-69
2022/05/20 13:15:58;;;;;;;;;;;;;;;24.42;28.66;153796.19;1789270;79;21165;-66
2022/05/20 13:18:40;;;;;;;;;;;;;;;24.34;28.86;153776.59;1778176;79;20114;-68
2022/05/20 13:21:16;;;;;;;;;;;;;;;24.27;28.92;153759.56;1787780;79;20195;-66
2022/05/20 13:23:45;;;;;;;;;;;;;;;24.23;29.05;153749.09;1734674;81;20180;-70
2022/05/20 13:26:23;;;;;;;;;;;;;;;24.16;29.07;153732.06;1771647;80;20476;-69
2022/05/20 13:28:50;;;;;;;;;;;;;;;24.05;29.35;153701.95;1758872;81;21721;-71
2022/05/20 13:31:22;;;;;;;;;;;;;;;23.94;29.77;153675.69;1737144;81;20248;-69
2022/05/20 13:33:51;;;;;;;;;;;;;;;23.87;30.16;153657.38;1750191;81;20597;-70
2022/05/20 13:36:22;;;;;;;;;;;;;;;23.79;30.59;153637.73;1746555;81;20182;-70
2022/05/20 13:38:52;;;;;;;;;;;;;;;23.69;31.31;153611.58;1763024;80;20241;-69